Time;durP1;ratioP1;P1;durP2;ratioP2;P2;SDS_P1;SDS_P2;PMS_P1;PMS_P2;Temp;Humidity;BMP_temperature;BMP_pressure;BME280_temperature;BME280_humidity;BME280_pressure;Samples;Min_cycle;Max_cycle;Signal;HPM_P1;HPM_P2
2021/09/07 00:00:10;;;;;;;;;;;21.40;86.70;21.20;100016.00;;;;339131;28;90149;-92
2021/09/07 00:00:22;;;;;;;;;;;21.40;86.70;21.20;100020.00;;;;337038;28;87175;-93
2021/09/07 00:00:34;;;;;;;;;;;21.40;86.70;21.10;100015.00;;;;335026;29;91243;-91
2021/09/07 00:00:46;;;;;;;;;;;21.40;87.00;21.20;100010.00;;;;335978;28;88474;-91
2021/09/07 00:00:58;;;;;;;;;;;21.40;87.00;21.30;100003.00;;;;336386;28;89662;-92
2021/09/07 00:01:10;;;;;;;;;;;21.40;86.50;21.30;100014.00;;;;338710;28;87971;-91
2021/09/07 00:01:22;;;;;;;;;;;21.40;86.40;21.20;100022.00;;;;338898;28;90946;-91
2021/09/07 00:01:35;;;;;;;;;;;21.40;86.60;21.20;100016.00;;;;337342;28;87860;-92
2021/09/07 00:01:47;;;;;;;;;;;21.40;86.80;21.20;100013.00;;;;341571;28;89405;-91
2021/09/07 00:01:59;;;;;;;;;;;21.40;86.80;21.30;100018.00;;;;337485;28;87810;-91
2021/09/07 00:02:11;;;;;;;;;;;21.40;86.60;21.40;100013.00;;;;345957;28;91084;-92
2021/09/07 00:02:23;;;;;;;;;;;21.40;86.40;21.30;100010.00;;;;338750;28;88168;-92
2021/09/07 00:02:35;;;;;;;;;;;21.30;86.90;21.30;100010.00;;;;343214;28;91867;-92
2021/09/07 00:02:47;;;;;;;;;;;21.30;86.80;21.20;100020.00;;;;339768;28;88802;-92
2021/09/07 00:02:59;;;;;;;;;;;21.30;86.80;21.30;100019.00;;;;336256;28;92554;-92
2021/09/07 00:03:11;;;;;;;;;;;21.30;86.50;21.30;100013.00;;;;337423;28;87097;-92
2021/09/07 00:03:23;;;;;;;;;;;21.30;86.30;21.30;100005.00;;;;337651;28;91335;-92
2021/09/07 00:03:35;;;;;;;;;;;21.30;86.60;21.20;100013.00;;;;337411;28;87857;-92
2021/09/07 00:03:47;;;;;;;;;;;21.30;86.80;21.00;100012.00;;;;340425;28;89117;-92
2021/09/07 00:03:59;;;;;;;;;;;21.30;86.60;21.00;100015.00;;;;338682;28;88279;-92
2021/09/07 00:04:11;;;;;;;;;;;21.30;86.80;20.90;100011.00;;;;337649;28;89901;-92
2021/09/07 00:04:29;;;;;;;;;;;21.30;87.10;20.90;100017.00;;;;338513;28;87109;-92
2021/09/07 00:04:41;;;;;;;;;;;21.30;87.10;21.10;100021.00;;;;337452;28;90415;-92
2021/09/07 00:04:52;;;;;;;;;;;21.30;87.00;21.10;100016.00;;;;341273;28;87146;-92
2021/09/07 00:05:05;;;;;;;;;;;21.30;87.30;21.10;100020.00;;;;338936;28;91142;-92
2021/09/07 00:05:18;;;;;;;;;;;21.20;87.00;21.00;100018.00;;;;336201;28;88630;-91
2021/09/07 00:05:29;;;;;;;;;;;21.30;87.00;21.10;100015.00;;;;341662;28;91138;-92
2021/09/07 00:05:41;;;;;;;;;;;21.20;87.10;21.20;100012.00;;;;338587;28;87836;-92
2021/09/07 00:05:53;;;;;;;;;;;21.20;86.70;21.10;100017.00;;;;335986;29;89626;-92
2021/09/07 00:06:05;;;;;;;;;;;21.20;87.00;21.10;100016.00;;;;338640;28;88648;-92
2021/09/07 00:06:17;;;;;;;;;;;21.20;86.80;21.10;100009.00;;;;339406;28;91394;-91
2021/09/07 00:06:29;;;;;;;;;;;21.20;87.00;21.10;100013.00;;;;337424;28;88433;-92
2021/09/07 00:06:41;;;;;;;;;;;21.20;87.40;21.00;100020.00;;;;337601;28;90969;-92
2021/09/07 00:06:53;;;;;;;;;;;21.20;87.60;20.90;100023.00;;;;336967;28;87040;-92
2021/09/07 00:07:05;;;;;;;;;;;21.20;87.60;21.00;100014.00;;;;338986;28;91253;-92
2021/09/07 00:07:17;;;;;;;;;;;21.20;87.50;21.00;100021.00;;;;338849;28;88339;-91
2021/09/07 00:07:29;;;;;;;;;;;21.20;87.40;21.00;100017.00;;;;336196;29;89766;-91
2021/09/07 00:07:40;;;;;;;;;;;21.20;87.40;21.10;100024.00;;;;337483;28;87635;-91
2021/09/07 00:07:52;;;;;;;;;;;21.20;87.10;21.10;100018.00;;;;338952;28;89296;-92
2021/09/07 00:08:04;;;;;;;;;;;21.20;87.00;21.10;100019.00;;;;336283;29;87751;-92
2021/09/07 00:08:16;;;;;;;;;;;21.20;86.70;21.00;100023.00;;;;336916;29;89716;-93
2021/09/07 00:08:28;;;;;;;;;;;21.20;87.40;20.80;100028.00;;;;338847;28;87313;-91
2021/09/07 00:08:40;;;;;;;;;;;21.10;88.10;20.70;100022.00;;;;336574;29;90334;-92
2021/09/07 00:08:52;;;;;;;;;;;21.10;88.20;20.70;100022.00;;;;338372;28;87097;-91
2021/09/07 00:09:04;;;;;;;;;;;21.10;88.20;20.70;100026.00;;;;339043;28;90310;-92
2021/09/07 00:09:15;;;;;;;;;;;21.00;88.20;20.90;100019.00;;;;339325;28;86854;-92
2021/09/07 00:09:27;;;;;;;;;;;21.00;87.90;21.00;100026.00;;;;336720;29;89705;-91
2021/09/07 00:09:39;;;;;;;;;;;21.00;87.80;20.90;100020.00;;;;338887;28;86917;-92
2021/09/07 00:09:52;;;;;;;;;;;21.00;88.20;21.00;100027.00;;;;339259;28;89604;-92
2021/09/07 00:10:05;;;;;;;;;;;21.00;87.60;21.00;100023.00;;;;339156;28;86764;-91
2021/09/07 00:10:17;;;;;;;;;;;21.00;87.70;20.90;100024.00;;;;337847;28;89364;-91
2021/09/07 00:10:29;;;;;;;;;;;21.00;87.80;20.90;100024.00;;;;337774;28;87338;-91
2021/09/07 00:10:41;;;;;;;;;;;21.00;88.20;20.90;100026.00;;;;337937;28;90842;-92
2021/09/07 00:10:53;;;;;;;;;;;21.00;88.20;20.80;100032.00;;;;337723;28;87217;-92
2021/09/07 00:11:05;;;;;;;;;;;21.00;88.50;20.80;100023.00;;;;339344;28;89567;-92
2021/09/07 00:11:17;;;;;;;;;;;21.00;88.60;20.80;100028.00;;;;339049;28;87458;-91
2021/09/07 00:11:29;;;;;;;;;;;21.00;88.40;20.80;100029.00;;;;337984;28;89997;-92
2021/09/07 00:11:41;;;;;;;;;;;20.90;88.50;20.80;100023.00;;;;338739;28;88272;-92
2021/09/07 00:11:53;;;;;;;;;;;21.00;88.60;20.80;100032.00;;;;341557;28;89240;-91
2021/09/07 00:12:05;;;;;;;;;;;20.90;88.60;20.90;100022.00;;;;338944;28;88148;-92
2021/09/07 00:12:17;;;;;;;;;;;20.90;88.50;20.90;100034.00;;;;341952;28;90277;-91
2021/09/07 00:12:29;;;;;;;;;;;20.90;88.10;20.90;100025.00;;;;336427;29;87055;-92
2021/09/07 00:12:41;;;;;;;;;;;20.90;87.60;20.90;100027.00;;;;338113;28;90224;-91
2021/09/07 00:12:53;;;;;;;;;;;20.90;88.00;20.90;100029.00;;;;339914;28;88195;-91
2021/09/07 00:13:05;;;;;;;;;;;20.90;88.60;20.90;100025.00;;;;337901;28;90020;-92
2021/09/07 00:13:17;;;;;;;;;;;20.90;88.60;20.90;100029.00;;;;345998;28;86692;-91
2021/09/07 00:13:29;;;;;;;;;;;20.90;88.10;21.00;100023.00;;;;343482;28;90420;-90
2021/09/07 00:13:40;;;;;;;;;;;20.90;87.60;21.00;100027.00;;;;340472;28;87446;-90
2021/09/07 00:13:52;;;;;;;;;;;20.90;87.50;21.10;100023.00;;;;340498;28;89034;-91
2021/09/07 00:14:04;;;;;;;;;;;20.90;87.80;21.00;100025.00;;;;339099;28;86898;-91
2021/09/07 00:14:16;;;;;;;;;;;21.00;88.20;20.90;100030.00;;;;339052;28;89849;-92
2021/09/07 00:14:28;;;;;;;;;;;20.90;88.10;20.90;100027.00;;;;337478;28;86949;-91
2021/09/07 00:14:40;;;;;;;;;;;20.90;88.30;20.80;100021.00;;;;340659;28;90188;-92
2021/09/07 00:14:51;;;;;;;;;;;20.90;88.10;20.80;100022.00;;;;339746;28;87048;-91
2021/09/07 00:15:05;;;;;;;;;;;20.90;88.40;20.80;100022.00;;;;339034;28;90001;-91
2021/09/07 00:15:17;;;;;;;;;;;20.90;88.40;20.90;100017.00;;;;339752;28;86261;-92
2021/09/07 00:15:29;;;;;;;;;;;20.90;88.40;20.90;100020.00;;;;337931;28;89969;-91
2021/09/07 00:15:41;;;;;;;;;;;20.90;88.10;20.90;100028.00;;;;338904;28;87312;-91
2021/09/07 00:15:53;;;;;;;;;;;20.90;88.10;20.90;100027.00;;;;342089;28;88370;-92
2021/09/07 00:16:05;;;;;;;;;;;20.90;89.30;20.90;100021.00;;;;339102;28;86690;-93
2021/09/07 00:16:16;;;;;;;;;;;20.90;88.70;20.90;100028.00;;;;341826;28;89978;-91
2021/09/07 00:16:28;;;;;;;;;;;20.90;88.60;20.90;100025.00;;;;339022;28;87028;-92
2021/09/07 00:16:40;;;;;;;;;;;20.90;88.30;20.90;100021.00;;;;338488;28;89974;-92
2021/09/07 00:16:52;;;;;;;;;;;20.90;88.60;20.90;100029.00;;;;340152;28;87074;-92
2021/09/07 00:17:04;;;;;;;;;;;20.90;89.00;20.90;100018.00;;;;337642;28;90238;-92
2021/09/07 00:17:16;;;;;;;;;;;20.90;89.00;20.90;100024.00;;;;336126;28;86908;-92
2021/09/07 00:17:27;;;;;;;;;;;20.90;89.00;20.80;100027.00;;;;337671;28;91214;-92
2021/09/07 00:17:39;;;;;;;;;;;20.90;88.80;20.80;100028.00;;;;338663;28;87407;-92
2021/09/07 00:17:51;;;;;;;;;;;20.90;89.20;20.80;100031.00;;;;339732;28;89961;-91
2021/09/07 00:18:03;;;;;;;;;;;20.90;88.50;20.80;100032.00;;;;338748;28;88196;-92
2021/09/07 00:18:15;;;;;;;;;;;20.90;88.70;20.90;100026.00;;;;345493;28;89792;-92
2021/09/07 00:18:28;;;;;;;;;;;20.90;88.30;20.80;100029.00;;;;337374;28;87028;-91
2021/09/07 00:18:39;;;;;;;;;;;20.90;88.50;20.80;100029.00;;;;336364;28;88904;-92
2021/09/07 00:18:51;;;;;;;;;;;20.90;88.80;20.70;100011.00;;;;337354;28;87033;-92
2021/09/07 00:19:03;;;;;;;;;;;20.90;88.80;20.80;100029.00;;;;337565;28;89339;-92
2021/09/07 00:19:32;;;;;;;;;;;20.90;88.70;20.90;100027.00;;;;334781;29;87582;-91
2021/09/07 00:19:43;;;;;;;;;;;20.90;88.60;21.00;100024.00;;;;337601;28;90028;-92
2021/09/07 00:19:55;;;;;;;;;;;20.90;88.60;21.00;100026.00;;;;337447;28;87076;-92
2021/09/07 00:20:07;;;;;;;;;;;20.90;88.30;21.00;100025.00;;;;337656;28;89958;-92
2021/09/07 00:20:22;;;;;;;;;;;20.90;88.20;20.90;100023.00;;;;337345;28;88321;-92
2021/09/07 00:20:34;;;;;;;;;;;20.90;88.80;21.00;100029.00;;;;336213;28;90457;-92
2021/09/07 00:20:46;;;;;;;;;;;20.90;88.60;20.90;100030.00;;;;339374;28;88050;-92
2021/09/07 00:20:58;;;;;;;;;;;20.90;88.70;20.70;100032.00;;;;338739;28;89626;-92
2021/09/07 00:21:10;;;;;;;;;;;20.90;88.90;20.80;100029.00;;;;336061;28;88312;-92
2021/09/07 00:21:22;;;;;;;;;;;20.90;89.00;20.90;100028.00;;;;338806;28;90879;-92
2021/09/07 00:21:34;;;;;;;;;;;20.90;88.70;20.90;100028.00;;;;337286;28;88451;-91
2021/09/07 00:21:45;;;;;;;;;;;20.90;88.50;21.00;100020.00;;;;337640;28;89625;-92
2021/09/07 00:21:57;;;;;;;;;;;20.90;88.10;20.90;100023.00;;;;336193;29;86893;-92
2021/09/07 00:22:09;;;;;;;;;;;20.90;88.70;20.90;100020.00;;;;340253;28;89773;-92
2021/09/07 00:22:21;;;;;;;;;;;20.90;88.70;20.90;100023.00;;;;337340;28;88033;-92
2021/09/07 00:22:34;;;;;;;;;;;20.90;88.90;20.90;100034.00;;;;337713;28;89629;-92
2021/09/07 00:22:46;;;;;;;;;;;20.80;88.70;21.00;100020.00;;;;338690;28;86980;-92
2021/09/07 00:22:57;;;;;;;;;;;20.90;88.70;20.90;100023.00;;;;340235;28;89346;-92
2021/09/07 00:23:09;;;;;;;;;;;20.90;88.90;20.80;100023.00;;;;338704;28;87246;-92
2021/09/07 00:23:21;;;;;;;;;;;20.80;88.80;20.80;100028.00;;;;338973;28;90456;-91
2021/09/07 00:23:33;;;;;;;;;;;20.80;89.00;20.70;100031.00;;;;337508;28;86964;-92
2021/09/07 00:23:45;;;;;;;;;;;20.80;89.10;20.70;100034.00;;;;337179;28;90678;-91
2021/09/07 00:23:57;;;;;;;;;;;20.80;89.10;20.60;100025.00;;;;339452;28;86316;-91
2021/09/07 00:24:09;;;;;;;;;;;20.80;89.60;20.60;100022.00;;;;338994;28;89074;-92
2021/09/07 00:24:21;;;;;;;;;;;20.80;89.10;20.70;100028.00;;;;336902;28;87392;-92
2021/09/07 00:24:32;;;;;;;;;;;20.80;89.30;20.70;100023.00;;;;338997;28;90988;-91
2021/09/07 00:24:44;;;;;;;;;;;20.80;89.30;20.70;100024.00;;;;337446;28;87317;-92
2021/09/07 00:24:56;;;;;;;;;;;20.80;89.40;20.70;100028.00;;;;333752;29;89959;-92
2021/09/07 00:25:08;;;;;;;;;;;20.80;89.20;20.70;100026.00;;;;337215;28;87391;-91
2021/09/07 00:25:21;;;;;;;;;;;20.80;89.40;20.70;100025.00;;;;336090;28;89149;-92
2021/09/07 00:25:33;;;;;;;;;;;20.80;89.60;20.70;100032.00;;;;336047;28;86957;-92
2021/09/07 00:25:45;;;;;;;;;;;20.80;89.40;20.60;100022.00;;;;337541;28;90231;-92
2021/09/07 00:25:57;;;;;;;;;;;20.70;89.30;20.60;100017.00;;;;345762;28;87966;-92
2021/09/07 00:26:08;;;;;;;;;;;20.80;89.20;20.60;100025.00;;;;347267;28;90095;-92
2021/09/07 00:26:20;;;;;;;;;;;20.80;89.30;20.60;100016.00;;;;337409;28;87063;-92
2021/09/07 00:26:32;;;;;;;;;;;20.70;89.30;20.60;100020.00;;;;335097;29;90953;-91
2021/09/07 00:26:44;;;;;;;;;;;20.70;89.50;20.60;100026.00;;;;337158;28;88388;-92
2021/09/07 00:26:57;;;;;;;;;;;20.80;89.40;20.50;100021.00;;;;339581;28;91349;-92
2021/09/07 00:27:08;;;;;;;;;;;20.70;89.40;20.60;100019.00;;;;337353;28;87190;-92
2021/09/07 00:27:20;;;;;;;;;;;20.70;89.50;20.50;100019.00;;;;336254;28;91016;-91
2021/09/07 00:27:33;;;;;;;;;;;20.70;89.50;20.50;100020.00;;;;338212;28;86977;-92
2021/09/07 00:27:45;;;;;;;;;;;20.70;89.80;20.70;100027.00;;;;337617;28;90189;-92
2021/09/07 00:27:57;;;;;;;;;;;20.70;89.60;20.60;100028.00;;;;337163;28;87192;-92
2021/09/07 00:28:09;;;;;;;;;;;20.70;89.70;20.70;100026.00;;;;336325;28;88781;-92
2021/09/07 00:28:20;;;;;;;;;;;20.70;89.30;20.70;100017.00;;;;336038;28;86842;-91
2021/09/07 00:28:32;;;;;;;;;;;20.70;89.20;20.70;100018.00;;;;337661;28;89960;-92
2021/09/07 00:28:44;;;;;;;;;;;20.70;88.70;20.70;100025.00;;;;337456;28;88647;-92
2021/09/07 00:28:56;;;;;;;;;;;20.70;88.50;20.70;100019.00;;;;340199;28;90135;-92
2021/09/07 00:29:08;;;;;;;;;;;20.70;88.50;20.80;100024.00;;;;337316;28;88252;-92
2021/09/07 00:29:20;;;;;;;;;;;20.70;88.80;20.90;100025.00;;;;337666;28;89831;-92
2021/09/07 00:29:31;;;;;;;;;;;20.70;88.80;20.90;100025.00;;;;338722;28;87089;-92
2021/09/07 00:29:43;;;;;;;;;;;20.70;89.00;20.80;100023.00;;;;340143;28;91448;-92
2021/09/07 00:29:55;;;;;;;;;;;20.70;88.60;20.90;100025.00;;;;338450;28;86854;-92
2021/09/07 00:30:07;;;;;;;;;;;20.70;88.20;20.80;100015.00;;;;338838;28;88918;-91
2021/09/07 00:30:19;;;;;;;;;;;20.70;88.50;20.80;100024.00;;;;336695;28;87722;-92
2021/09/07 00:30:31;;;;;;;;;;;20.70;88.90;20.80;100021.00;;;;337386;28;88937;-92
2021/09/07 00:30:43;;;;;;;;;;;20.70;88.70;20.70;100027.00;;;;336157;28;86848;-92
2021/09/07 00:30:55;;;;;;;;;;;20.70;89.60;20.70;100016.00;;;;337533;28;89851;-91
2021/09/07 00:31:07;;;;;;;;;;;20.70;90.00;20.70;100018.00;;;;338679;28;87670;-92
2021/09/07 00:31:19;;;;;;;;;;;20.70;90.00;20.70;100019.00;;;;344567;28;89992;-91
2021/09/07 00:31:32;;;;;;;;;;;20.70;89.60;20.70;100023.00;;;;335082;28;88344;-92
2021/09/07 00:31:44;;;;;;;;;;;20.70;89.50;20.60;100013.00;;;;336278;28;89887;-92
2021/09/07 00:31:56;;;;;;;;;;;20.70;89.50;20.70;100028.00;;;;336068;29;87042;-92
2021/09/07 00:32:08;;;;;;;;;;;20.70;89.40;20.70;100020.00;;;;336357;29;88957;-92
2021/09/07 00:32:20;;;;;;;;;;;20.70;89.70;20.70;100034.00;;;;334679;29;88030;-92
2021/09/07 00:32:31;;;;;;;;;;;20.70;89.90;20.70;100022.00;;;;337573;28;89821;-92
2021/09/07 00:32:43;;;;;;;;;;;20.70;89.70;20.70;100029.00;;;;335807;28;87120;-92
2021/09/07 00:32:55;;;;;;;;;;;20.70;89.40;20.80;100020.00;;;;335931;28;89716;-91
2021/09/07 00:33:08;;;;;;;;;;;20.70;89.10;20.80;100018.00;;;;338364;28;86224;-91
2021/09/07 00:33:20;;;;;;;;;;;20.70;88.90;20.80;100016.00;;;;337509;28;90034;-91
2021/09/07 00:33:32;;;;;;;;;;;20.70;89.70;20.70;100016.00;;;;337200;28;86203;-92
2021/09/07 00:33:44;;;;;;;;;;;20.70;89.80;20.70;100017.00;;;;336314;28;90108;-91
2021/09/07 00:33:56;;;;;;;;;;;20.70;89.80;20.60;100014.00;;;;337252;28;88724;-91
2021/09/07 00:34:08;;;;;;;;;;;20.70;89.80;20.60;100017.00;;;;336407;28;89406;-92
2021/09/07 00:34:20;;;;;;;;;;;20.70;89.90;20.50;100010.00;;;;337087;28;87157;-91
2021/09/07 00:34:34;;;;;;;;;;;20.70;90.00;20.50;100016.00;;;;336313;29;89978;-91
2021/09/07 00:34:46;;;;;;;;;;;20.70;90.00;20.50;100013.00;;;;337490;28;87036;-92
2021/09/07 00:34:58;;;;;;;;;;;20.60;90.00;20.50;100015.00;;;;338848;28;90298;-91
2021/09/07 00:35:11;;;;;;;;;;;20.60;90.00;20.50;100018.00;;;;338717;28;87600;-91
2021/09/07 00:35:24;;;;;;;;;;;20.60;89.90;20.50;100010.00;;;;338946;28;89969;-91
2021/09/07 00:35:36;;;;;;;;;;;20.60;90.00;20.60;100013.00;;;;338528;28;87108;-91
2021/09/07 00:35:48;;;;;;;;;;;20.60;90.10;20.60;100016.00;;;;338715;28;89953;-91
2021/09/07 00:36:00;;;;;;;;;;;20.60;90.00;20.70;100007.00;;;;338697;28;87985;-91
2021/09/07 00:36:11;;;;;;;;;;;20.60;89.60;20.70;100008.00;;;;337635;28;90415;-92
2021/09/07 00:36:23;;;;;;;;;;;20.60;89.70;20.70;100004.00;;;;337186;28;87824;-91
2021/09/07 00:36:35;;;;;;;;;;;20.60;89.60;20.70;100013.00;;;;340171;28;89001;-91
2021/09/07 00:36:47;;;;;;;;;;;20.60;89.30;20.60;100015.00;;;;336046;28;86995;-92
2021/09/07 00:36:59;;;;;;;;;;;20.60;89.60;20.60;100016.00;;;;344605;28;87366;-91
2021/09/07 00:37:11;;;;;;;;;;;20.60;89.60;20.60;100009.00;;;;338708;28;88428;-91
2021/09/07 00:37:23;;;;;;;;;;;20.60;89.70;20.70;100011.00;;;;344548;28;91090;-92
2021/09/07 00:37:34;;;;;;;;;;;20.60;89.50;20.70;100016.00;;;;339779;28;87020;-91
2021/09/07 00:37:46;;;;;;;;;;;20.60;89.70;20.60;100008.00;;;;334989;29;90657;-91
2021/09/07 00:37:58;;;;;;;;;;;20.60;89.30;20.60;100010.00;;;;337410;28;87037;-92
2021/09/07 00:38:11;;;;;;;;;;;20.60;89.70;20.60;100011.00;;;;336393;28;89181;-91
2021/09/07 00:38:24;;;;;;;;;;;20.60;89.60;20.60;99999.00;;;;338422;28;87269;-91
2021/09/07 00:38:35;;;;;;;;;;;20.60;89.70;20.60;100004.00;;;;337570;28;90406;-91
2021/09/07 00:38:47;;;;;;;;;;;20.60;89.80;20.50;100008.00;;;;334942;29;87995;-92
2021/09/07 00:38:59;;;;;;;;;;;20.60;89.70;20.60;100003.00;;;;334745;28;91719;-92
2021/09/07 00:39:12;;;;;;;;;;;20.60;90.00;20.60;100007.00;;;;336148;29;87974;-92
2021/09/07 00:39:23;;;;;;;;;;;20.60;90.00;20.60;100005.00;;;;337289;28;92248;-92
2021/09/07 00:39:35;;;;;;;;;;;20.60;90.10;20.60;99997.00;;;;337442;28;86900;-91
2021/09/07 00:39:47;;;;;;;;;;;20.60;90.00;20.60;100007.00;;;;339070;28;91018;-91
2021/09/07 00:39:59;;;;;;;;;;;20.60;89.50;20.60;100007.00;;;;337414;28;87613;-91
2021/09/07 00:40:11;;;;;;;;;;;20.60;89.40;20.60;100008.00;;;;336394;28;90192;-91
2021/09/07 00:40:23;;;;;;;;;;;20.60;90.00;20.60;99996.00;;;;336043;28;87744;-91
2021/09/07 00:40:35;;;;;;;;;;;20.60;90.10;20.60;100002.00;;;;338968;28;91097;-91
2021/09/07 00:40:47;;;;;;;;;;;20.60;90.00;20.60;100005.00;;;;338790;28;87297;-92
2021/09/07 00:40:59;;;;;;;;;;;20.60;90.00;20.60;100005.00;;;;336425;28;89025;-91
2021/09/07 00:41:11;;;;;;;;;;;20.60;89.70;20.60;100001.00;;;;338497;28;87262;-91
2021/09/07 00:41:23;;;;;;;;;;;20.60;89.80;20.60;100009.00;;;;337737;28;90113;-91
2021/09/07 00:41:37;;;;;;;;;;;20.60;89.90;20.60;100001.00;;;;337465;28;87887;-92
2021/09/07 00:41:49;;;;;;;;;;;20.60;90.00;20.60;100005.00;;;;335938;28;91386;-91
2021/09/07 00:42:00;;;;;;;;;;;20.60;90.00;20.60;99999.00;;;;334471;28;87524;-92
2021/09/07 00:42:14;;;;;;;;;;;20.60;89.90;20.60;99998.00;;;;337652;28;90461;-91
2021/09/07 00:42:26;;;;;;;;;;;20.50;89.90;20.60;100006.00;;;;337104;28;86284;-91
2021/09/07 00:42:38;;;;;;;;;;;20.60;89.90;20.60;99999.00;;;;337709;28;89654;-91
2021/09/07 00:42:50;;;;;;;;;;;20.60;89.80;20.60;100001.00;;;;338612;28;87294;-92
2021/09/07 00:43:02;;;;;;;;;;;20.50;90.00;20.60;100003.00;;;;336216;28;91059;-91
2021/09/07 00:43:14;;;;;;;;;;;20.50;90.00;20.60;100003.00;;;;338316;28;86998;-91
2021/09/07 00:43:26;;;;;;;;;;;20.50;90.00;20.60;99998.00;;;;340164;28;89807;-91
2021/09/07 00:43:40;;;;;;;;;;;20.50;90.00;20.60;100002.00;;;;344327;28;86794;-91
2021/09/07 00:43:52;;;;;;;;;;;20.50;89.50;20.70;100000.00;;;;344563;28;91198;-91
2021/09/07 00:44:17;;;;;;;;;;;20.50;89.70;20.60;100005.00;;;;336087;28;88207;-92
2021/09/07 00:44:29;;;;;;;;;;;20.60;90.20;20.60;99996.00;;;;338944;28;89141;-92
2021/09/07 00:44:41;;;;;;;;;;;20.50;90.40;20.60;99996.00;;;;338737;28;86965;-91
2021/09/07 00:44:53;;;;;;;;;;;20.50;89.90;20.60;99996.00;;;;340001;28;88962;-91
2021/09/07 00:45:06;;;;;;;;;;;20.50;90.10;20.60;100000.00;;;;337448;28;88251;-92
2021/09/07 00:45:19;;;;;;;;;;;20.50;90.10;20.60;100000.00;;;;336837;28;89970;-92
2021/09/07 00:45:30;;;;;;;;;;;20.50;90.00;20.70;99994.00;;;;336012;29;87040;-92
2021/09/07 00:45:44;;;;;;;;;;;20.50;90.10;20.70;99994.00;;;;338819;28;90118;-92
2021/09/07 00:45:56;;;;;;;;;;;20.50;89.30;20.70;100000.00;;;;337249;28;87460;-92
2021/09/07 00:46:12;;;;;;;;;;;20.60;89.20;20.70;99997.00;;;;337689;28;90282;-92
2021/09/07 00:46:24;;;;;;;;;;;20.50;89.40;20.70;99992.00;;;;337147;28;87107;-92
2021/09/07 00:46:36;;;;;;;;;;;20.50;89.10;20.70;99992.00;;;;337562;28;89598;-92
2021/09/07 00:46:52;;;;;;;;;;;20.50;89.80;20.60;99993.00;;;;337418;28;87103;-92
2021/09/07 00:47:06;;;;;;;;;;;20.50;90.10;20.50;99991.00;;;;336300;28;91216;-92
2021/09/07 00:47:18;;;;;;;;;;;20.50;90.10;20.50;99992.00;;;;336154;29;86941;-92
2021/09/07 00:47:30;;;;;;;;;;;20.50;90.20;20.50;99995.00;;;;336357;29;90025;-91
2021/09/07 00:47:42;;;;;;;;;;;20.60;90.30;20.50;99991.00;;;;336031;28;87122;-92
2021/09/07 00:47:56;;;;;;;;;;;20.60;90.30;20.50;99988.00;;;;338490;28;91898;-91
2021/09/07 00:48:08;;;;;;;;;;;20.50;90.30;20.60;99996.00;;;;340027;28;88063;-92
2021/09/07 00:48:20;;;;;;;;;;;20.50;90.10;20.60;99996.00;;;;339461;28;91515;-92
2021/09/07 00:48:32;;;;;;;;;;;20.50;90.00;20.70;100000.00;;;;337383;28;87089;-92
2021/09/07 00:48:43;;;;;;;;;;;20.50;89.60;20.70;99988.00;;;;337599;28;90108;-92
2021/09/07 00:48:55;;;;;;;;;;;20.60;89.60;20.70;99984.00;;;;334723;29;87326;-91
2021/09/07 00:49:07;;;;;;;;;;;20.60;89.50;20.70;99995.00;;;;338897;28;89795;-92
2021/09/07 00:49:19;;;;;;;;;;;20.60;89.40;20.90;99994.00;;;;337380;28;87833;-92
2021/09/07 00:49:31;;;;;;;;;;;20.60;89.80;20.80;99991.00;;;;338856;28;91154;-92
2021/09/07 00:49:43;;;;;;;;;;;20.60;90.10;20.80;99991.00;;;;337291;28;87940;-92
2021/09/07 00:49:55;;;;;;;;;;;20.60;90.00;20.70;99993.00;;;;335042;29;90940;-92
2021/09/07 00:50:07;;;;;;;;;;;20.60;89.80;20.80;99994.00;;;;337317;28;88440;-93
2021/09/07 00:50:19;;;;;;;;;;;20.60;89.50;20.80;99989.00;;;;337351;28;89974;-92
2021/09/07 00:50:31;;;;;;;;;;;20.60;89.50;20.80;99990.00;;;;338715;28;88251;-92
2021/09/07 00:50:43;;;;;;;;;;;20.60;89.50;21.00;99990.00;;;;338764;28;88860;-91
2021/09/07 00:50:55;;;;;;;;;;;20.60;89.90;21.00;99991.00;;;;337748;28;88471;-92
2021/09/07 00:51:07;;;;;;;;;;;20.60;90.10;21.00;99994.00;;;;338832;28;90131;-92
2021/09/07 00:51:21;;;;;;;;;;;20.70;90.10;20.90;99992.00;;;;339796;28;87120;-92
2021/09/07 00:51:33;;;;;;;;;;;20.70;90.10;20.90;99988.00;;;;337375;28;90040;-92
2021/09/07 00:51:46;;;;;;;;;;;20.70;89.90;21.00;99987.00;;;;339756;28;88024;-92
2021/09/07 00:52:16;;;;;;;;;;;20.70;90.00;21.00;99991.00;;;;340083;28;90778;-91
2021/09/07 00:52:28;;;;;;;;;;;20.70;90.00;21.00;99987.00;;;;338531;28;87103;-92
2021/09/07 00:52:41;;;;;;;;;;;20.70;90.00;21.00;99995.00;;;;338965;28;90581;-92
2021/09/07 00:52:53;;;;;;;;;;;20.70;89.90;21.00;99984.00;;;;337364;28;87376;-91
2021/09/07 00:53:05;;;;;;;;;;;20.70;89.90;20.90;99984.00;;;;338941;28;90305;-92
2021/09/07 00:53:16;;;;;;;;;;;20.70;89.90;21.00;99983.00;;;;339977;28;87286;-92
2021/09/07 00:53:28;;;;;;;;;;;20.70;89.80;21.00;99991.00;;;;336340;29;91118;-91
2021/09/07 00:53:40;;;;;;;;;;;20.70;89.70;21.00;99997.00;;;;337327;28;87364;-92
2021/09/07 00:53:52;;;;;;;;;;;20.70;89.60;20.90;99995.00;;;;337712;28;89833;-91
2021/09/07 00:54:04;;;;;;;;;;;20.70;90.00;20.80;99989.00;;;;338587;28;87907;-92
2021/09/07 00:54:16;;;;;;;;;;;20.70;90.20;20.80;99991.00;;;;338825;28;90098;-92
2021/09/07 00:54:30;;;;;;;;;;;20.70;90.10;20.70;99991.00;;;;338694;28;88475;-91
2021/09/07 00:54:43;;;;;;;;;;;20.70;90.10;20.80;99988.00;;;;338921;28;90407;-92
2021/09/07 00:54:54;;;;;;;;;;;20.70;90.10;20.80;99992.00;;;;338437;28;86759;-91
2021/09/07 00:55:07;;;;;;;;;;;20.70;90.00;20.80;99984.00;;;;337653;28;89299;-92
2021/09/07 00:55:21;;;;;;;;;;;20.70;89.60;20.90;99996.00;;;;338690;28;86992;-91
2021/09/07 00:55:33;;;;;;;;;;;20.70;89.50;20.90;99995.00;;;;340227;28;89891;-91
2021/09/07 00:55:45;;;;;;;;;;;20.70;89.50;20.90;99996.00;;;;337377;28;88369;-91
2021/09/07 00:55:57;;;;;;;;;;;20.70;89.40;20.90;99992.00;;;;340358;28;89775;-92
2021/09/07 00:56:09;;;;;;;;;;;20.70;89.40;20.90;99990.00;;;;335859;28;87157;-91
2021/09/07 00:56:22;;;;;;;;;;;20.70;89.30;20.90;99982.00;;;;340225;28;87348;-92
2021/09/07 00:56:34;;;;;;;;;;;20.70;89.30;20.90;99990.00;;;;337382;28;88164;-93
2021/09/07 00:56:46;;;;;;;;;;;20.70;89.40;20.90;99999.00;;;;338698;28;90088;-92
2021/09/07 00:56:58;;;;;;;;;;;20.70;89.50;21.00;99988.00;;;;339313;28;86458;-91
2021/09/07 00:57:10;;;;;;;;;;;20.70;89.50;20.90;99983.00;;;;335016;29;90726;-92
2021/09/07 00:57:25;;;;;;;;;;;20.70;89.60;20.90;99985.00;;;;338300;28;87104;-92
2021/09/07 00:57:37;;;;;;;;;;;20.70;89.80;20.90;99996.00;;;;338834;28;89789;-92
2021/09/07 00:57:51;;;;;;;;;;;20.70;90.00;21.00;99994.00;;;;337973;28;88638;-91
2021/09/07 00:58:04;;;;;;;;;;;20.80;89.40;21.00;99980.00;;;;337619;28;91101;-92
2021/09/07 00:58:16;;;;;;;;;;;20.80;89.70;21.00;99992.00;;;;337270;28;86970;-92
2021/09/07 00:58:30;;;;;;;;;;;20.80;89.70;21.00;99995.00;;;;337609;28;91099;-92
2021/09/07 00:58:42;;;;;;;;;;;20.80;89.70;21.10;99991.00;;;;335810;28;87333;-91
2021/09/07 00:58:54;;;;;;;;;;;20.80;89.70;21.10;99989.00;;;;337621;28;91656;-93
2021/09/07 00:59:06;;;;;;;;;;;20.80;89.90;21.10;99990.00;;;;338520;28;87082;-92
2021/09/07 00:59:18;;;;;;;;;;;20.80;90.00;21.10;99990.00;;;;336387;29;89171;-92
2021/09/07 00:59:30;;;;;;;;;;;20.80;90.00;21.20;99993.00;;;;337365;28;88691;-92
2021/09/07 00:59:42;;;;;;;;;;;20.80;90.00;21.20;99993.00;;;;337243;28;90146;-91
2021/09/07 00:59:54;;;;;;;;;;;20.80;89.80;21.20;99991.00;;;;335063;29;87706;-92
2021/09/07 01:00:07;;;;;;;;;;;20.80;89.90;21.20;99987.00;;;;338816;28;89985;-92
2021/09/07 01:00:19;;;;;;;;;;;20.80;89.90;21.10;99987.00;;;;337924;28;87263;-92